sensor_id;sensor_type;location;lat;lon;timestamp;P1;durP1;ratioP1;P2;durP2;ratioP2
21550;SDS011;10936;49.836;7.078;2023-03-08T06:01:59;36.83;;;19.00;;
21550;SDS011;10936;49.836;7.078;2023-03-08T06:04:25;42.60;;;20.50;;
21550;SDS011;10936;49.836;7.078;2023-03-08T06:06:50;41.97;;;19.07;;
21550;SDS011;10936;49.836;7.078;2023-03-08T06:09:16;38.97;;;19.17;;
21550;SDS011;10936;49.836;7.078;2023-03-08T06:11:42;32.83;;;17.20;;
21550;SDS011;10936;49.836;7.078;2023-03-08T06:14:07;29.93;;;16.80;;
21550;SDS011;10936;49.836;7.078;2023-03-08T06:16:33;30.93;;;17.67;;
21550;SDS011;10936;49.836;7.078;2023-03-08T06:19:00;33.03;;;17.67;;
21550;SDS011;10936;49.836;7.078;2023-03-08T06:21:25;29.87;;;16.07;;
21550;SDS011;10936;49.836;7.078;2023-03-08T06:23:51;30.83;;;16.73;;
21550;SDS011;10936;49.836;7.078;2023-03-08T06:26:17;29.17;;;16.13;;
21550;SDS011;10936;49.836;7.078;2023-03-08T06:28:42;33.63;;;17.70;;
21550;SDS011;10936;49.836;7.078;2023-03-08T06:31:13;30.97;;;16.00;;
21550;SDS011;10936;49.836;7.078;2023-03-08T06:33:41;31.27;;;16.50;;
21550;SDS011;10936;49.836;7.078;2023-03-08T06:36:07;31.50;;;17.73;;
21550;SDS011;10936;49.836;7.078;2023-03-08T06:38:36;31.70;;;17.27;;
21550;SDS011;10936;49.836;7.078;2023-03-08T06:41:03;34.67;;;17.07;;
21550;SDS011;10936;49.836;7.078;2023-03-08T06:43:29;34.47;;;17.70;;
21550;SDS011;10936;49.836;7.078;2023-03-08T06:45:55;32.80;;;17.50;;
21550;SDS011;10936;49.836;7.078;2023-03-08T06:48:21;37.80;;;18.30;;
21550;SDS011;10936;49.836;7.078;2023-03-08T06:50:47;34.23;;;19.83;;
21550;SDS011;10936;49.836;7.078;2023-03-08T06:53:12;33.97;;;19.10;;
21550;SDS011;10936;49.836;7.078;2023-03-08T06:55:39;36.77;;;19.40;;
21550;SDS011;10936;49.836;7.078;2023-03-08T06:58:06;37.77;;;18.70;;
21550;SDS011;10936;49.836;7.078;2023-03-08T07:00:32;35.60;;;19.73;;
21550;SDS011;10936;49.836;7.078;2023-03-08T07:02:58;37.13;;;19.73;;
21550;SDS011;10936;49.836;7.078;2023-03-08T07:05:23;35.00;;;19.13;;
21550;SDS011;10936;49.836;7.078;2023-03-08T07:07:50;36.17;;;19.33;;
21550;SDS011;10936;49.836;7.078;2023-03-08T07:10:16;37.13;;;19.37;;
21550;SDS011;10936;49.836;7.078;2023-03-08T07:12:43;34.37;;;18.60;;
21550;SDS011;10936;49.836;7.078;2023-03-08T07:15:12;29.90;;;16.80;;
21550;SDS011;10936;49.836;7.078;2023-03-08T07:17:40;35.33;;;18.10;;
21550;SDS011;10936;49.836;7.078;2023-03-08T07:20:07;34.50;;;19.33;;
21550;SDS011;10936;49.836;7.078;2023-03-08T07:22:33;32.30;;;18.37;;
21550;SDS011;10936;49.836;7.078;2023-03-08T07:24:59;32.37;;;17.57;;
21550;SDS011;10936;49.836;7.078;2023-03-08T07:27:25;29.67;;;17.37;;
21550;SDS011;10936;49.836;7.078;2023-03-08T07:29:50;33.00;;;17.57;;
21550;SDS011;10936;49.836;7.078;2023-03-08T07:32:16;28.13;;;16.87;;
21550;SDS011;10936;49.836;7.078;2023-03-08T07:34:42;27.30;;;15.87;;
21550;SDS011;10936;49.836;7.078;2023-03-08T07:37:14;26.40;;;15.17;;
21550;SDS011;10936;49.836;7.078;2023-03-08T07:39:40;28.50;;;15.50;;
21550;SDS011;10936;49.836;7.078;2023-03-08T07:42:06;27.20;;;14.50;;
21550;SDS011;10936;49.836;7.078;2023-03-08T07:44:32;25.53;;;14.97;;
21550;SDS011;10936;49.836;7.078;2023-03-08T07:46:58;23.70;;;14.90;;
21550;SDS011;10936;49.836;7.078;2023-03-08T07:49:23;22.27;;;14.27;;
21550;SDS011;10936;49.836;7.078;2023-03-08T07:51:49;23.13;;;13.33;;
21550;SDS011;10936;49.836;7.078;2023-03-08T07:54:17;19.97;;;12.20;;
21550;SDS011;10936;49.836;7.078;2023-03-08T07:56:43;21.83;;;13.40;;
21550;SDS011;10936;49.836;7.078;2023-03-08T07:59:08;17.93;;;11.30;;
21550;SDS011;10936;49.836;7.078;2023-03-08T08:01:34;18.23;;;10.57;;
21550;SDS011;10936;49.836;7.078;2023-03-08T08:04:00;19.17;;;10.77;;
21550;SDS011;10936;49.836;7.078;2023-03-08T08:06:26;15.57;;;10.57;;
21550;SDS011;10936;49.836;7.078;2023-03-08T08:08:53;15.13;;;10.20;;
21550;SDS011;10936;49.836;7.078;2023-03-08T08:11:19;15.57;;;9.70;;
21550;SDS011;10936;49.836;7.078;2023-03-08T08:13:45;13.83;;;9.57;;
21550;SDS011;10936;49.836;7.078;2023-03-08T08:16:11;13.33;;;8.40;;
21550;SDS011;10936;49.836;7.078;2023-03-08T08:18:38;12.17;;;7.97;;
21550;SDS011;10936;49.836;7.078;2023-03-08T08:21:05;10.20;;;7.00;;
21550;SDS011;10936;49.836;7.078;2023-03-08T08:23:32;10.30;;;6.47;;
21550;SDS011;10936;49.836;7.078;2023-03-08T08:25:59;8.67;;;5.70;;
21550;SDS011;10936;49.836;7.078;2023-03-08T08:28:28;9.33;;;6.30;;
21550;SDS011;10936;49.836;7.078;2023-03-08T08:30:55;8.47;;;5.80;;
21550;SDS011;10936;49.836;7.078;2023-03-08T08:33:24;6.97;;;5.03;;
21550;SDS011;10936;49.836;7.078;2023-03-08T08:35:51;6.70;;;4.67;;
21550;SDS011;10936;49.836;7.078;2023-03-08T08:38:17;5.90;;;4.33;;
21550;SDS011;10936;49.836;7.078;2023-03-08T08:40:43;5.47;;;4.00;;
21550;SDS011;10936;49.836;7.078;2023-03-08T08:43:08;5.10;;;3.80;;
21550;SDS011;10936;49.836;7.078;2023-03-08T08:45:34;5.37;;;3.87;;
21550;SDS011;10936;49.836;7.078;2023-03-08T08:47:59;6.10;;;4.30;;
21550;SDS011;10936;49.836;7.078;2023-03-08T08:50:25;6.13;;;3.80;;
21550;SDS011;10936;49.836;7.078;2023-03-08T08:52:50;4.30;;;3.27;;
21550;SDS011;10936;49.836;7.078;2023-03-08T08:55:16;4.80;;;3.10;;
21550;SDS011;10936;49.836;7.078;2023-03-08T08:57:41;4.50;;;3.40;;
21550;SDS011;10936;49.836;7.078;2023-03-08T09:00:07;3.90;;;2.90;;
21550;SDS011;10936;49.836;7.078;2023-03-08T09:02:34;3.63;;;2.53;;
21550;SDS011;10936;49.836;7.078;2023-03-08T09:05:00;3.23;;;2.60;;
21550;SDS011;10936;49.836;7.078;2023-03-08T09:07:25;3.70;;;2.47;;
21550;SDS011;10936;49.836;7.078;2023-03-08T09:09:53;5.20;;;2.80;;
21550;SDS011;10936;49.836;7.078;2023-03-08T09:12:18;3.03;;;2.07;;
21550;SDS011;10936;49.836;7.078;2023-03-08T09:14:45;3.40;;;2.47;;
21550;SDS011;10936;49.836;7.078;2023-03-08T09:17:11;2.33;;;2.10;;
21550;SDS011;10936;49.836;7.078;2023-03-08T09:19:36;2.97;;;2.37;;
21550;SDS011;10936;49.836;7.078;2023-03-08T09:22:02;3.83;;;2.43;;
21550;SDS011;10936;49.836;7.078;2023-03-08T09:24:28;2.97;;;2.17;;
21550;SDS011;10936;49.836;7.078;2023-03-08T09:26:54;2.40;;;2.20;;
21550;SDS011;10936;49.836;7.078;2023-03-08T09:29:19;2.67;;;1.90;;
21550;SDS011;10936;49.836;7.078;2023-03-08T09:31:45;2.07;;;1.87;;
21550;SDS011;10936;49.836;7.078;2023-03-08T09:34:11;2.20;;;1.80;;
21550;SDS011;10936;49.836;7.078;2023-03-08T09:36:38;2.73;;;1.80;;
21550;SDS011;10936;49.836;7.078;2023-03-08T09:39:06;2.07;;;1.80;;
21550;SDS011;10936;49.836;7.078;2023-03-08T09:49:43;1.83;;;1.53;;
21550;SDS011;10936;49.836;7.078;2023-03-08T09:52:16;1.77;;;1.43;;
21550;SDS011;10936;49.836;7.078;2023-03-08T09:54:49;2.30;;;1.53;;
21550;SDS011;10936;49.836;7.078;2023-03-08T09:57:17;2.10;;;1.50;;
21550;SDS011;10936;49.836;7.078;2023-03-08T10:10:41;3.60;;;2.03;;
21550;SDS011;10936;49.836;7.078;2023-03-08T10:13:18;2.30;;;1.70;;
21550;SDS011;10936;49.836;7.078;2023-03-08T10:15:51;2.00;;;1.80;;
21550;SDS011;10936;49.836;7.078;2023-03-08T10:21:10;2.77;;;1.73;;
21550;SDS011;10936;49.836;7.078;2023-03-08T10:23:41;3.23;;;1.90;;
21550;SDS011;10936;49.836;7.078;2023-03-08T10:26:11;2.43;;;1.80;;
21550;SDS011;10936;49.836;7.078;2023-03-08T10:28:38;2.37;;;1.93;;
21550;SDS011;10936;49.836;7.078;2023-03-08T10:31:21;3.70;;;2.00;;
21550;SDS011;10936;49.836;7.078;2023-03-08T10:33:57;2.73;;;2.27;;
21550;SDS011;10936;49.836;7.078;2023-03-08T10:36:26;2.47;;;2.13;;
21550;SDS011;10936;49.836;7.078;2023-03-08T10:39:00;4.70;;;1.97;;
21550;SDS011;10936;49.836;7.078;2023-03-08T10:41:31;2.40;;;2.20;;
21550;SDS011;10936;49.836;7.078;2023-03-08T10:44:12;2.47;;;2.03;;
21550;SDS011;10936;49.836;7.078;2023-03-08T10:46:47;2.83;;;2.17;;
21550;SDS011;10936;49.836;7.078;2023-03-08T10:49:15;3.03;;;2.40;;
21550;SDS011;10936;49.836;7.078;2023-03-08T10:52:43;3.43;;;2.50;;
21550;SDS011;10936;49.836;7.078;2023-03-08T10:57:37;3.17;;;2.67;;
21550;SDS011;10936;49.836;7.078;2023-03-08T11:02:44;3.67;;;3.17;;
21550;SDS011;10936;49.836;7.078;2023-03-08T11:05:23;3.27;;;2.70;;
21550;SDS011;10936;49.836;7.078;2023-03-08T11:07:53;3.77;;;2.47;;
21550;SDS011;10936;49.836;7.078;2023-03-08T11:10:21;4.53;;;2.63;;
21550;SDS011;10936;49.836;7.078;2023-03-08T11:12:49;3.73;;;2.60;;
21550;SDS011;10936;49.836;7.078;2023-03-08T11:15:25;5.97;;;3.10;;
21550;SDS011;10936;49.836;7.078;2023-03-08T11:18:18;3.40;;;2.57;;
21550;SDS011;10936;49.836;7.078;2023-03-08T11:21:00;3.47;;;2.43;;
21550;SDS011;10936;49.836;7.078;2023-03-08T11:23:59;5.07;;;2.70;;
21550;SDS011;10936;49.836;7.078;2023-03-08T11:26:34;5.50;;;2.73;;
21550;SDS011;10936;49.836;7.078;2023-03-08T11:34:47;3.87;;;3.00;;
21550;SDS011;10936;49.836;7.078;2023-03-08T11:37:43;3.17;;;2.67;;
21550;SDS011;10936;49.836;7.078;2023-03-08T11:40:19;6.07;;;3.20;;
21550;SDS011;10936;49.836;7.078;2023-03-08T11:48:12;5.70;;;3.50;;
21550;SDS011;10936;49.836;7.078;2023-03-08T11:50:45;4.83;;;3.70;;
21550;SDS011;10936;49.836;7.078;2023-03-08T11:53:33;5.67;;;4.00;;
21550;SDS011;10936;49.836;7.078;2023-03-08T11:56:32;5.90;;;3.70;;
21550;SDS011;10936;49.836;7.078;2023-03-08T11:59:10;8.07;;;4.90;;
21550;SDS011;10936;49.836;7.078;2023-03-08T12:01:46;5.80;;;4.50;;
21550;SDS011;10936;49.836;7.078;2023-03-08T12:04:24;5.23;;;3.83;;
21550;SDS011;10936;49.836;7.078;2023-03-08T12:06:54;5.53;;;3.70;;
21550;SDS011;10936;49.836;7.078;2023-03-08T12:11:53;3.87;;;3.37;;
21550;SDS011;10936;49.836;7.078;2023-03-08T12:14:33;5.33;;;3.50;;
21550;SDS011;10936;49.836;7.078;2023-03-08T12:17:05;4.83;;;3.10;;
21550;SDS011;10936;49.836;7.078;2023-03-08T12:19:48;4.47;;;3.13;;
21550;SDS011;10936;49.836;7.078;2023-03-08T12:25:21;3.67;;;2.80;;
21550;SDS011;10936;49.836;7.078;2023-03-08T12:28:01;2.73;;;2.43;;
21550;SDS011;10936;49.836;7.078;2023-03-08T12:31:02;3.13;;;2.50;;
21550;SDS011;10936;49.836;7.078;2023-03-08T12:33:31;3.90;;;2.93;;
21550;SDS011;10936;49.836;7.078;2023-03-08T12:35:59;3.83;;;2.80;;
21550;SDS011;10936;49.836;7.078;2023-03-08T12:40:56;6.07;;;3.80;;
21550;SDS011;10936;49.836;7.078;2023-03-08T12:51:17;9.40;;;4.17;;
21550;SDS011;10936;49.836;7.078;2023-03-08T12:56:18;11.13;;;3.90;;
21550;SDS011;10936;49.836;7.078;2023-03-08T12:58:58;7.27;;;3.90;;
21550;SDS011;10936;49.836;7.078;2023-03-08T13:01:45;9.27;;;4.20;;
21550;SDS011;10936;49.836;7.078;2023-03-08T13:04:32;15.23;;;5.43;;
21550;SDS011;10936;49.836;7.078;2023-03-08T13:09:52;10.70;;;4.47;;
21550;SDS011;10936;49.836;7.078;2023-03-08T13:12:22;11.10;;;3.63;;
21550;SDS011;10936;49.836;7.078;2023-03-08T13:14:59;4.67;;;3.00;;
21550;SDS011;10936;49.836;7.078;2023-03-08T13:20:19;6.77;;;2.97;;
21550;SDS011;10936;49.836;7.078;2023-03-08T13:28:07;6.57;;;3.23;;
21550;SDS011;10936;49.836;7.078;2023-03-08T13:30:56;6.70;;;3.20;;
21550;SDS011;10936;49.836;7.078;2023-03-08T13:33:23;3.33;;;2.10;;
21550;SDS011;10936;49.836;7.078;2023-03-08T13:35:57;5.87;;;2.80;;
21550;SDS011;10936;49.836;7.078;2023-03-08T13:38:25;6.43;;;3.60;;
21550;SDS011;10936;49.836;7.078;2023-03-08T13:40:56;2.53;;;1.80;;
21550;SDS011;10936;49.836;7.078;2023-03-08T13:43:23;2.00;;;1.30;;
21550;SDS011;10936;49.836;7.078;2023-03-08T13:45:51;2.60;;;1.30;;
21550;SDS011;10936;49.836;7.078;2023-03-08T13:48:20;5.87;;;1.83;;
21550;SDS011;10936;49.836;7.078;2023-03-08T13:50:47;4.17;;;1.77;;
21550;SDS011;10936;49.836;7.078;2023-03-08T13:53:24;3.27;;;1.70;;
21550;SDS011;10936;49.836;7.078;2023-03-08T13:55:54;3.60;;;1.33;;
21550;SDS011;10936;49.836;7.078;2023-03-08T14:03:35;0.90;;;0.70;;
21550;SDS011;10936;49.836;7.078;2023-03-08T14:06:02;4.00;;;1.30;;
21550;SDS011;10936;49.836;7.078;2023-03-08T14:08:28;2.03;;;1.20;;
21550;SDS011;10936;49.836;7.078;2023-03-08T14:10:55;2.37;;;1.23;;
21550;SDS011;10936;49.836;7.078;2023-03-08T14:15:53;1.47;;;1.10;;
21550;SDS011;10936;49.836;7.078;2023-03-08T14:18:22;2.03;;;1.00;;
21550;SDS011;10936;49.836;7.078;2023-03-08T14:23:39;2.60;;;0.90;;
21550;SDS011;10936;49.836;7.078;2023-03-08T14:26:21;0.77;;;0.70;;
21550;SDS011;10936;49.836;7.078;2023-03-08T14:29:02;4.07;;;1.60;;
21550;SDS011;10936;49.836;7.078;2023-03-08T14:31:36;1.70;;;1.10;;
21550;SDS011;10936;49.836;7.078;2023-03-08T14:34:03;1.70;;;1.30;;
21550;SDS011;10936;49.836;7.078;2023-03-08T14:36:44;3.13;;;1.50;;
21550;SDS011;10936;49.836;7.078;2023-03-08T14:39:17;4.77;;;1.00;;
21550;SDS011;10936;49.836;7.078;2023-03-08T14:41:43;1.23;;;0.90;;
21550;SDS011;10936;49.836;7.078;2023-03-08T14:44:17;3.57;;;1.30;;
21550;SDS011;10936;49.836;7.078;2023-03-08T14:46:46;2.83;;;1.30;;
21550;SDS011;10936;49.836;7.078;2023-03-08T14:49:19;1.93;;;1.10;;
21550;SDS011;10936;49.836;7.078;2023-03-08T14:51:46;1.17;;;1.07;;
21550;SDS011;10936;49.836;7.078;2023-03-08T14:54:22;3.53;;;1.97;;
21550;SDS011;10936;49.836;7.078;2023-03-08T14:56:57;1.17;;;1.00;;
21550;SDS011;10936;49.836;7.078;2023-03-08T14:59:25;1.80;;;1.13;;
21550;SDS011;10936;49.836;7.078;2023-03-08T15:01:51;4.60;;;1.30;;
21550;SDS011;10936;49.836;7.078;2023-03-08T15:04:23;4.40;;;1.27;;
21550;SDS011;10936;49.836;7.078;2023-03-08T15:06:49;3.87;;;1.70;;
21550;SDS011;10936;49.836;7.078;2023-03-08T15:09:17;2.00;;;1.30;;
21550;SDS011;10936;49.836;7.078;2023-03-08T15:11:45;2.27;;;1.33;;
21550;SDS011;10936;49.836;7.078;2023-03-08T15:14:12;3.13;;;1.40;;
21550;SDS011;10936;49.836;7.078;2023-03-08T15:16:39;1.83;;;1.67;;
21550;SDS011;10936;49.836;7.078;2023-03-08T15:19:05;4.27;;;2.07;;
21550;SDS011;10936;49.836;7.078;2023-03-08T15:21:32;4.67;;;1.70;;
21550;SDS011;10936;49.836;7.078;2023-03-08T15:24:00;5.20;;;2.20;;
21550;SDS011;10936;49.836;7.078;2023-03-08T15:26:27;7.37;;;4.17;;
21550;SDS011;10936;49.836;7.078;2023-03-08T15:28:55;8.07;;;2.27;;
21550;SDS011;10936;49.836;7.078;2023-03-08T15:31:21;5.67;;;2.43;;
21550;SDS011;10936;49.836;7.078;2023-03-08T15:33:47;4.67;;;2.33;;
21550;SDS011;10936;49.836;7.078;2023-03-08T15:36:13;4.60;;;2.83;;
21550;SDS011;10936;49.836;7.078;2023-03-08T15:38:40;4.43;;;2.40;;
21550;SDS011;10936;49.836;7.078;2023-03-08T15:41:13;4.70;;;3.13;;
21550;SDS011;10936;49.836;7.078;2023-03-08T15:43:39;4.50;;;2.63;;
21550;SDS011;10936;49.836;7.078;2023-03-08T15:46:05;7.53;;;2.50;;
21550;SDS011;10936;49.836;7.078;2023-03-08T15:48:32;3.13;;;2.13;;
21550;SDS011;10936;49.836;7.078;2023-03-08T15:50:57;4.43;;;2.23;;
21550;SDS011;10936;49.836;7.078;2023-03-08T15:53:23;4.60;;;1.93;;
21550;SDS011;10936;49.836;7.078;2023-03-08T15:55:49;3.33;;;1.70;;
21550;SDS011;10936;49.836;7.078;2023-03-08T15:58:15;2.20;;;1.70;;
21550;SDS011;10936;49.836;7.078;2023-03-08T16:00:41;3.87;;;2.00;;
21550;SDS011;10936;49.836;7.078;2023-03-08T16:03:06;3.27;;;1.57;;
21550;SDS011;10936;49.836;7.078;2023-03-08T16:05:36;3.53;;;1.80;;
21550;SDS011;10936;49.836;7.078;2023-03-08T16:08:02;4.40;;;2.20;;
21550;SDS011;10936;49.836;7.078;2023-03-08T16:10:33;4.20;;;2.23;;
21550;SDS011;10936;49.836;7.078;2023-03-08T16:13:04;6.93;;;2.00;;
21550;SDS011;10936;49.836;7.078;2023-03-08T16:15:33;3.23;;;2.40;;
21550;SDS011;10936;49.836;7.078;2023-03-08T16:17:59;7.47;;;2.20;;
21550;SDS011;10936;49.836;7.078;2023-03-08T16:20:24;3.70;;;1.80;;
21550;SDS011;10936;49.836;7.078;2023-03-08T16:22:50;4.40;;;2.47;;
21550;SDS011;10936;49.836;7.078;2023-03-08T16:25:16;10.50;;;3.60;;
21550;SDS011;10936;49.836;7.078;2023-03-08T16:27:42;5.17;;;2.73;;
21550;SDS011;10936;49.836;7.078;2023-03-08T16:30:08;14.57;;;4.97;;
21550;SDS011;10936;49.836;7.078;2023-03-08T16:32:35;9.07;;;2.47;;
21550;SDS011;10936;49.836;7.078;2023-03-08T16:35:00;8.67;;;3.10;;
21550;SDS011;10936;49.836;7.078;2023-03-08T16:37:26;6.20;;;2.57;;
21550;SDS011;10936;49.836;7.078;2023-03-08T16:39:52;3.27;;;2.00;;
21550;SDS011;10936;49.836;7.078;2023-03-08T16:42:18;3.47;;;1.83;;
21550;SDS011;10936;49.836;7.078;2023-03-08T16:44:49;4.17;;;1.90;;
21550;SDS011;10936;49.836;7.078;2023-03-08T16:47:16;4.47;;;2.40;;
21550;SDS011;10936;49.836;7.078;2023-03-08T16:49:42;6.03;;;3.03;;
21550;SDS011;10936;49.836;7.078;2023-03-08T16:52:07;6.20;;;3.77;;
21550;SDS011;10936;49.836;7.078;2023-03-08T16:54:33;2.90;;;1.97;;
21550;SDS011;10936;49.836;7.078;2023-03-08T16:56:59;2.50;;;1.50;;
21550;SDS011;10936;49.836;7.078;2023-03-08T16:59:24;3.77;;;1.60;;
21550;SDS011;10936;49.836;7.078;2023-03-08T17:01:50;2.83;;;2.20;;
21550;SDS011;10936;49.836;7.078;2023-03-08T17:04:15;3.67;;;1.63;;
21550;SDS011;10936;49.836;7.078;2023-03-08T17:06:42;4.87;;;2.10;;
21550;SDS011;10936;49.836;7.078;2023-03-08T17:09:08;1.43;;;0.93;;
21550;SDS011;10936;49.836;7.078;2023-03-08T17:11:35;3.07;;;1.17;;
21550;SDS011;10936;49.836;7.078;2023-03-08T17:14:02;3.57;;;2.20;;
21550;SDS011;10936;49.836;7.078;2023-03-08T17:16:32;9.60;;;5.70;;
21550;SDS011;10936;49.836;7.078;2023-03-08T17:19:00;5.63;;;2.43;;
21550;SDS011;10936;49.836;7.078;2023-03-08T17:21:27;1.43;;;1.00;;
21550;SDS011;10936;49.836;7.078;2023-03-08T17:23:53;0.97;;;0.77;;
21550;SDS011;10936;49.836;7.078;2023-03-08T17:26:19;2.93;;;1.60;;
21550;SDS011;10936;49.836;7.078;2023-03-08T17:28:47;2.63;;;0.83;;
21550;SDS011;10936;49.836;7.078;2023-03-08T17:31:18;1.77;;;0.70;;
21550;SDS011;10936;49.836;7.078;2023-03-08T17:33:45;3.53;;;0.67;;
21550;SDS011;10936;49.836;7.078;2023-03-08T17:36:12;0.93;;;0.50;;
21550;SDS011;10936;49.836;7.078;2023-03-08T17:38:38;1.07;;;0.60;;
21550;SDS011;10936;49.836;7.078;2023-03-08T17:41:11;0.83;;;0.70;;
21550;SDS011;10936;49.836;7.078;2023-03-08T17:43:38;2.03;;;1.10;;
21550;SDS011;10936;49.836;7.078;2023-03-08T17:46:10;2.63;;;1.33;;
21550;SDS011;10936;49.836;7.078;2023-03-08T17:48:40;3.33;;;1.60;;
21550;SDS011;10936;49.836;7.078;2023-03-08T17:51:07;1.60;;;0.97;;
21550;SDS011;10936;49.836;7.078;2023-03-08T17:53:34;4.77;;;1.20;;
21550;SDS011;10936;49.836;7.078;2023-03-08T17:56:03;2.70;;;1.17;;
21550;SDS011;10936;49.836;7.078;2023-03-08T17:58:30;3.97;;;2.00;;
21550;SDS011;10936;49.836;7.078;2023-03-08T18:00:56;4.83;;;1.87;;
21550;SDS011;10936;49.836;7.078;2023-03-08T18:03:21;8.90;;;3.67;;
21550;SDS011;10936;49.836;7.078;2023-03-08T18:05:47;5.57;;;3.17;;
21550;SDS011;10936;49.836;7.078;2023-03-08T18:08:15;14.77;;;7.10;;
21550;SDS011;10936;49.836;7.078;2023-03-08T18:10:41;7.83;;;3.70;;
21550;SDS011;10936;49.836;7.078;2023-03-08T18:13:06;2.10;;;1.37;;
21550;SDS011;10936;49.836;7.078;2023-03-08T18:15:32;3.00;;;1.57;;
21550;SDS011;10936;49.836;7.078;2023-03-08T18:17:57;2.50;;;1.20;;
21550;SDS011;10936;49.836;7.078;2023-03-08T18:20:23;2.67;;;1.40;;
21550;SDS011;10936;49.836;7.078;2023-03-08T18:22:50;2.60;;;1.60;;
21550;SDS011;10936;49.836;7.078;2023-03-08T18:25:16;3.83;;;1.90;;
21550;SDS011;10936;49.836;7.078;2023-03-08T18:27:42;4.60;;;1.97;;
21550;SDS011;10936;49.836;7.078;2023-03-08T18:30:08;2.23;;;1.70;;
21550;SDS011;10936;49.836;7.078;2023-03-08T18:32:35;3.97;;;1.97;;
21550;SDS011;10936;49.836;7.078;2023-03-08T18:35:01;3.87;;;1.90;;
21550;SDS011;10936;49.836;7.078;2023-03-08T18:37:28;18.60;;;9.37;;
21550;SDS011;10936;49.836;7.078;2023-03-08T18:39:55;4.07;;;2.47;;
21550;SDS011;10936;49.836;7.078;2023-03-08T18:42:21;4.70;;;2.70;;
21550;SDS011;10936;49.836;7.078;2023-03-08T18:44:47;6.20;;;3.77;;
21550;SDS011;10936;49.836;7.078;2023-03-08T18:47:13;5.50;;;3.00;;
21550;SDS011;10936;49.836;7.078;2023-03-08T18:49:38;4.30;;;2.30;;
21550;SDS011;10936;49.836;7.078;2023-03-08T18:52:05;4.03;;;2.60;;
21550;SDS011;10936;49.836;7.078;2023-03-08T18:54:31;3.37;;;1.90;;
21550;SDS011;10936;49.836;7.078;2023-03-08T18:56:57;2.70;;;1.90;;
21550;SDS011;10936;49.836;7.078;2023-03-08T18:59:23;2.97;;;2.00;;
21550;SDS011;10936;49.836;7.078;2023-03-08T19:01:49;4.43;;;2.50;;
21550;SDS011;10936;49.836;7.078;2023-03-08T19:04:15;6.07;;;1.90;;
21550;SDS011;10936;49.836;7.078;2023-03-08T19:06:40;2.93;;;1.70;;
21550;SDS011;10936;49.836;7.078;2023-03-08T19:09:11;3.27;;;2.30;;
21550;SDS011;10936;49.836;7.078;2023-03-08T19:11:38;3.00;;;1.97;;
21550;SDS011;10936;49.836;7.078;2023-03-08T19:14:04;5.13;;;2.67;;
21550;SDS011;10936;49.836;7.078;2023-03-08T19:16:32;2.77;;;2.00;;
21550;SDS011;10936;49.836;7.078;2023-03-08T19:19:00;3.43;;;2.10;;
21550;SDS011;10936;49.836;7.078;2023-03-08T19:21:29;3.23;;;2.37;;
21550;SDS011;10936;49.836;7.078;2023-03-08T19:24:00;3.23;;;2.10;;
21550;SDS011;10936;49.836;7.078;2023-03-08T19:26:26;3.20;;;2.30;;
21550;SDS011;10936;49.836;7.078;2023-03-08T19:29:00;2.77;;;2.43;;
21550;SDS011;10936;49.836;7.078;2023-03-08T19:31:28;5.23;;;3.23;;
21550;SDS011;10936;49.836;7.078;2023-03-08T19:33:54;3.03;;;2.17;;
21550;SDS011;10936;49.836;7.078;2023-03-08T19:36:20;3.63;;;2.17;;
21550;SDS011;10936;49.836;7.078;2023-03-08T19:38:46;4.50;;;1.80;;
21550;SDS011;10936;49.836;7.078;2023-03-08T19:41:12;7.70;;;3.57;;
21550;SDS011;10936;49.836;7.078;2023-03-08T19:43:40;5.27;;;2.50;;
21550;SDS011;10936;49.836;7.078;2023-03-08T19:46:06;4.67;;;2.20;;
21550;SDS011;10936;49.836;7.078;2023-03-08T19:48:33;6.23;;;2.97;;
21550;SDS011;10936;49.836;7.078;2023-03-08T19:50:59;8.40;;;5.30;;
21550;SDS011;10936;49.836;7.078;2023-03-08T19:53:25;5.27;;;3.47;;
21550;SDS011;10936;49.836;7.078;2023-03-08T19:55:51;10.33;;;7.03;;
21550;SDS011;10936;49.836;7.078;2023-03-08T19:58:18;14.23;;;9.30;;
21550;SDS011;10936;49.836;7.078;2023-03-08T20:00:44;15.37;;;8.77;;
21550;SDS011;10936;49.836;7.078;2023-03-08T20:03:11;12.53;;;7.40;;
21550;SDS011;10936;49.836;7.078;2023-03-08T20:05:38;8.20;;;5.03;;
21550;SDS011;10936;49.836;7.078;2023-03-08T20:08:08;7.17;;;4.97;;
21550;SDS011;10936;49.836;7.078;2023-03-08T20:10:34;6.37;;;4.60;;
21550;SDS011;10936;49.836;7.078;2023-03-08T20:13:00;5.37;;;4.30;;
21550;SDS011;10936;49.836;7.078;2023-03-08T20:15:26;7.93;;;5.37;;
21550;SDS011;10936;49.836;7.078;2023-03-08T20:17:52;6.80;;;5.00;;
21550;SDS011;10936;49.836;7.078;2023-03-08T20:20:17;9.17;;;5.90;;
21550;SDS011;10936;49.836;7.078;2023-03-08T20:22:43;7.07;;;4.50;;
21550;SDS011;10936;49.836;7.078;2023-03-08T20:25:09;7.10;;;3.90;;
21550;SDS011;10936;49.836;7.078;2023-03-08T20:27:39;4.93;;;3.53;;
21550;SDS011;10936;49.836;7.078;2023-03-08T20:30:06;21.23;;;14.60;;
21550;SDS011;10936;49.836;7.078;2023-03-08T20:32:33;6.23;;;4.50;;
21550;SDS011;10936;49.836;7.078;2023-03-08T20:34:58;4.60;;;3.73;;
21550;SDS011;10936;49.836;7.078;2023-03-08T20:37:24;4.87;;;3.50;;
21550;SDS011;10936;49.836;7.078;2023-03-08T20:39:50;4.63;;;3.37;;
21550;SDS011;10936;49.836;7.078;2023-03-08T20:42:16;5.50;;;3.57;;
21550;SDS011;10936;49.836;7.078;2023-03-08T20:44:42;5.20;;;3.80;;
21550;SDS011;10936;49.836;7.078;2023-03-08T20:47:08;4.97;;;3.63;;
21550;SDS011;10936;49.836;7.078;2023-03-08T20:49:34;6.77;;;4.40;;
21550;SDS011;10936;49.836;7.078;2023-03-08T20:51:59;7.57;;;4.10;;
21550;SDS011;10936;49.836;7.078;2023-03-08T20:54:25;5.93;;;4.10;;
21550;SDS011;10936;49.836;7.078;2023-03-08T20:56:50;5.53;;;4.40;;
21550;SDS011;10936;49.836;7.078;2023-03-08T20:59:16;6.53;;;4.27;;
21550;SDS011;10936;49.836;7.078;2023-03-08T21:01:44;5.87;;;4.47;;
21550;SDS011;10936;49.836;7.078;2023-03-08T21:04:10;3.60;;;2.57;;
21550;SDS011;10936;49.836;7.078;2023-03-08T21:06:36;4.73;;;2.40;;
21550;SDS011;10936;49.836;7.078;2023-03-08T21:09:02;4.20;;;1.90;;
21550;SDS011;10936;49.836;7.078;2023-03-08T21:11:27;3.03;;;2.27;;
21550;SDS011;10936;49.836;7.078;2023-03-08T21:13:53;3.07;;;2.30;;
21550;SDS011;10936;49.836;7.078;2023-03-08T21:16:20;3.17;;;2.50;;
21550;SDS011;10936;49.836;7.078;2023-03-08T21:18:50;4.57;;;2.47;;
21550;SDS011;10936;49.836;7.078;2023-03-08T21:21:17;4.07;;;2.67;;
21550;SDS011;10936;49.836;7.078;2023-03-08T21:23:44;5.07;;;2.90;;
21550;SDS011;10936;49.836;7.078;2023-03-08T21:26:09;5.33;;;3.30;;
21550;SDS011;10936;49.836;7.078;2023-03-08T21:28:35;4.37;;;2.80;;
21550;SDS011;10936;49.836;7.078;2023-03-08T21:31:00;3.60;;;2.43;;
21550;SDS011;10936;49.836;7.078;2023-03-08T21:33:26;3.60;;;2.60;;
21550;SDS011;10936;49.836;7.078;2023-03-08T21:35:51;4.50;;;3.00;;
21550;SDS011;10936;49.836;7.078;2023-03-08T21:38:17;3.27;;;2.80;;
21550;SDS011;10936;49.836;7.078;2023-03-08T21:40:42;4.00;;;3.20;;
21550;SDS011;10936;49.836;7.078;2023-03-08T21:43:08;17.70;;;9.87;;
21550;SDS011;10936;49.836;7.078;2023-03-08T21:45:37;16.63;;;8.57;;
21550;SDS011;10936;49.836;7.078;2023-03-08T21:48:04;5.53;;;3.73;;
21550;SDS011;10936;49.836;7.078;2023-03-08T21:50:30;5.43;;;4.03;;
21550;SDS011;10936;49.836;7.078;2023-03-08T21:52:56;7.03;;;4.27;;
21550;SDS011;10936;49.836;7.078;2023-03-08T21:55:22;8.90;;;5.30;;
21550;SDS011;10936;49.836;7.078;2023-03-08T21:57:48;6.03;;;4.23;;
21550;SDS011;10936;49.836;7.078;2023-03-08T22:00:13;17.13;;;8.30;;
21550;SDS011;10936;49.836;7.078;2023-03-08T22:02:41;9.93;;;5.73;;
21550;SDS011;10936;49.836;7.078;2023-03-08T22:05:10;7.40;;;4.60;;
21550;SDS011;10936;49.836;7.078;2023-03-08T22:07:37;7.27;;;4.77;;
21550;SDS011;10936;49.836;7.078;2023-03-08T22:10:02;6.57;;;3.97;;